Arsenal, Arkansas
Current Conditions -  °F | °C
As of 11:53 AM on Wednesday 28 Jan 2015 (Local Time) from KPBF Reporting Station
Clear Clear  
Wind Chill: 13°   Ceiling: Unl
Heat Index: 13°   Visibility: 10mi
Dew Point:   Wind: 12mph
Humidity: 53%   Direction: 120°ESE
Pressure: 30.23"   Gusts: NA
Location:  34.193°N, 91.9403°W
Report Text: KPBF 281753Z AUTO 12010KT 10SM CLR 13/03 A3023 RMK AO2 SLP236 T01280033 10133 20017 58015
Loading
Personal Weather Stations






























Interactive Weather Map New forecast layout! Learn more

10-Day Weather Forecast

Advertisements
Track Severe Weather on mobile